KDEC/DEC METAR and TAF weather

Enter ICAO airport designator
Station Type Date Time Source
KDEC METAR 2023/02/05 13:54 UTC NOAA

KDEC 051354Z 22012KT 10SM CLR 02/00 A2996 RMK AO2 SLP149 T00220000


Station Type Date Time Source
KDEC Decoded METAR 2023/02/05 13:54 UTC NOAA

DECATUR AIRPORT, IL, United States (KDEC) 39-50N 88-52W 207M
Feb 05, 2023 - 08:54 AM EST / 2023.02.05 1354 UTC
Wind: from the SW (220 degrees) at 14 MPH (12 KT):0
Visibility: 10 mile(s):0
Sky conditions: clear
Temperature: 36.0 F (2.2 C)
Dew Point: 32.0 F (0.0 C)
Relative Humidity: 85%
Pressure (altimeter): 29.96 in. Hg (1014 hPa)
ob: KDEC 051354Z 22012KT 10SM CLR 02/00 A2996 RMK AO2 SLP149 T00220000
cycle: 14

Station Type Date Time Source
KDEC TAF 2023/02/05 12:27 UTC NOAA

TAF KDEC 051125Z 0512/0612 22013KT P6SM FEW050 BKN250
FM051700 26013KT P6SM FEW045 BKN250
FM060000 31010KT P6SM FEW250
FM060600 03004KT 5SM BR SCT250

Example: see airport list